sensor_id;sensor_type;location;lat;lon;timestamp;P1;durP1;ratioP1;P2;durP2;ratioP2
11203;SDS011;5659;49.408;11.116;2023-06-14T00:00:58;6.80;;;3.80;;
11203;SDS011;5659;49.408;11.116;2023-06-14T00:03:24;5.90;;;3.65;;
11203;SDS011;5659;49.408;11.116;2023-06-14T00:05:51;5.25;;;4.05;;
11203;SDS011;5659;49.408;11.116;2023-06-14T00:08:17;5.40;;;4.00;;
11203;SDS011;5659;49.408;11.116;2023-06-14T00:10:44;5.18;;;3.78;;
11203;SDS011;5659;49.408;11.116;2023-06-14T00:13:10;6.95;;;3.88;;
11203;SDS011;5659;49.408;11.116;2023-06-14T00:15:36;6.05;;;3.92;;
11203;SDS011;5659;49.408;11.116;2023-06-14T00:18:02;7.68;;;3.42;;
11203;SDS011;5659;49.408;11.116;2023-06-14T00:20:29;5.18;;;3.70;;
11203;SDS011;5659;49.408;11.116;2023-06-14T00:22:59;5.43;;;4.10;;
11203;SDS011;5659;49.408;11.116;2023-06-14T00:25:25;9.65;;;3.80;;
11203;SDS011;5659;49.408;11.116;2023-06-14T00:27:51;7.60;;;3.88;;
11203;SDS011;5659;49.408;11.116;2023-06-14T00:30:17;6.85;;;3.78;;
11203;SDS011;5659;49.408;11.116;2023-06-14T00:32:44;8.95;;;3.70;;
11203;SDS011;5659;49.408;11.116;2023-06-14T00:35:10;8.68;;;3.53;;
11203;SDS011;5659;49.408;11.116;2023-06-14T00:37:36;6.38;;;3.47;;
11203;SDS011;5659;49.408;11.116;2023-06-14T00:40:03;5.18;;;3.83;;
11203;SDS011;5659;49.408;11.116;2023-06-14T00:42:29;5.97;;;4.00;;
11203;SDS011;5659;49.408;11.116;2023-06-14T00:44:55;5.53;;;3.80;;
11203;SDS011;5659;49.408;11.116;2023-06-14T00:47:22;6.22;;;3.72;;
11203;SDS011;5659;49.408;11.116;2023-06-14T00:49:48;9.52;;;4.30;;
11203;SDS011;5659;49.408;11.116;2023-06-14T00:52:16;8.13;;;3.60;;
11203;SDS011;5659;49.408;11.116;2023-06-14T00:54:42;14.00;;;4.30;;
11203;SDS011;5659;49.408;11.116;2023-06-14T00:57:09;5.78;;;4.07;;
11203;SDS011;5659;49.408;11.116;2023-06-14T00:59:37;6.78;;;3.90;;
11203;SDS011;5659;49.408;11.116;2023-06-14T01:02:04;10.50;;;3.63;;
11203;SDS011;5659;49.408;11.116;2023-06-14T01:04:30;10.80;;;5.50;;
11203;SDS011;5659;49.408;11.116;2023-06-14T01:12:02;11.38;;;5.43;;
11203;SDS011;5659;49.408;11.116;2023-06-14T01:14:31;6.38;;;4.00;;
11203;SDS011;5659;49.408;11.116;2023-06-14T01:16:57;6.60;;;4.20;;
11203;SDS011;5659;49.408;11.116;2023-06-14T01:19:25;7.00;;;4.22;;
11203;SDS011;5659;49.408;11.116;2023-06-14T01:21:53;7.90;;;4.18;;
11203;SDS011;5659;49.408;11.116;2023-06-14T01:24:20;7.03;;;4.55;;
11203;SDS011;5659;49.408;11.116;2023-06-14T01:26:51;20.05;;;6.20;;
11203;SDS011;5659;49.408;11.116;2023-06-14T01:29:20;12.68;;;4.63;;
11203;SDS011;5659;49.408;11.116;2023-06-14T01:31:47;15.93;;;6.03;;
11203;SDS011;5659;49.408;11.116;2023-06-14T01:34:14;27.15;;;7.47;;
11203;SDS011;5659;49.408;11.116;2023-06-14T01:36:41;13.13;;;5.60;;
11203;SDS011;5659;49.408;11.116;2023-06-14T01:39:07;9.27;;;4.45;;
11203;SDS011;5659;49.408;11.116;2023-06-14T01:41:34;12.77;;;4.13;;
11203;SDS011;5659;49.408;11.116;2023-06-14T01:44:00;6.00;;;4.13;;
11203;SDS011;5659;49.408;11.116;2023-06-14T01:46:27;16.67;;;5.13;;
11203;SDS011;5659;49.408;11.116;2023-06-14T01:48:53;9.68;;;4.30;;
11203;SDS011;5659;49.408;11.116;2023-06-14T01:51:19;6.97;;;4.32;;
11203;SDS011;5659;49.408;11.116;2023-06-14T01:53:45;9.23;;;4.32;;
11203;SDS011;5659;49.408;11.116;2023-06-14T01:56:12;7.47;;;4.00;;
11203;SDS011;5659;49.408;11.116;2023-06-14T01:58:38;6.80;;;4.47;;
11203;SDS011;5659;49.408;11.116;2023-06-14T02:01:04;12.88;;;4.82;;
11203;SDS011;5659;49.408;11.116;2023-06-14T02:03:32;15.20;;;5.28;;
11203;SDS011;5659;49.408;11.116;2023-06-14T02:05:59;24.80;;;6.20;;
11203;SDS011;5659;49.408;11.116;2023-06-14T02:08:25;12.82;;;6.30;;
11203;SDS011;5659;49.408;11.116;2023-06-14T02:10:51;14.48;;;5.15;;
11203;SDS011;5659;49.408;11.116;2023-06-14T02:13:17;13.02;;;4.95;;
11203;SDS011;5659;49.408;11.116;2023-06-14T02:15:43;10.45;;;5.00;;
11203;SDS011;5659;49.408;11.116;2023-06-14T02:18:10;13.82;;;5.57;;
11203;SDS011;5659;49.408;11.116;2023-06-14T02:20:36;9.43;;;4.60;;
11203;SDS011;5659;49.408;11.116;2023-06-14T02:23:02;7.00;;;4.15;;
11203;SDS011;5659;49.408;11.116;2023-06-14T02:25:28;8.35;;;4.10;;
11203;SDS011;5659;49.408;11.116;2023-06-14T02:27:54;7.90;;;4.60;;
11203;SDS011;5659;49.408;11.116;2023-06-14T02:30:20;7.40;;;4.30;;
11203;SDS011;5659;49.408;11.116;2023-06-14T02:32:46;9.38;;;5.20;;
11203;SDS011;5659;49.408;11.116;2023-06-14T02:35:13;11.00;;;5.68;;
11203;SDS011;5659;49.408;11.116;2023-06-14T02:37:39;11.07;;;5.50;;
11203;SDS011;5659;49.408;11.116;2023-06-14T02:40:06;12.40;;;5.28;;
11203;SDS011;5659;49.408;11.116;2023-06-14T02:42:34;7.30;;;5.00;;
11203;SDS011;5659;49.408;11.116;2023-06-14T02:45:00;7.78;;;5.22;;
11203;SDS011;5659;49.408;11.116;2023-06-14T02:47:27;7.25;;;4.50;;
11203;SDS011;5659;49.408;11.116;2023-06-14T02:49:53;11.18;;;4.80;;
11203;SDS011;5659;49.408;11.116;2023-06-14T02:52:19;7.30;;;5.35;;
11203;SDS011;5659;49.408;11.116;2023-06-14T02:54:45;7.20;;;4.88;;
11203;SDS011;5659;49.408;11.116;2023-06-14T02:57:12;8.52;;;5.00;;
11203;SDS011;5659;49.408;11.116;2023-06-14T02:59:38;9.55;;;5.15;;
11203;SDS011;5659;49.408;11.116;2023-06-14T03:02:04;7.80;;;4.80;;
11203;SDS011;5659;49.408;11.116;2023-06-14T03:04:30;7.05;;;4.85;;
11203;SDS011;5659;49.408;11.116;2023-06-14T03:07:02;14.23;;;4.97;;
11203;SDS011;5659;49.408;11.116;2023-06-14T03:09:34;6.97;;;5.53;;
11203;SDS011;5659;49.408;11.116;2023-06-14T03:12:00;7.28;;;4.97;;
11203;SDS011;5659;49.408;11.116;2023-06-14T03:14:27;11.10;;;5.50;;
11203;SDS011;5659;49.408;11.116;2023-06-14T03:16:55;15.57;;;5.57;;
11203;SDS011;5659;49.408;11.116;2023-06-14T03:19:21;6.80;;;5.15;;
11203;SDS011;5659;49.408;11.116;2023-06-14T03:21:47;7.65;;;5.20;;
11203;SDS011;5659;49.408;11.116;2023-06-14T03:24:14;8.95;;;5.30;;
11203;SDS011;5659;49.408;11.116;2023-06-14T03:26:41;10.07;;;5.22;;
11203;SDS011;5659;49.408;11.116;2023-06-14T03:29:07;8.15;;;4.82;;
11203;SDS011;5659;49.408;11.116;2023-06-14T03:31:34;10.93;;;5.38;;
11203;SDS011;5659;49.408;11.116;2023-06-14T03:34:03;8.27;;;4.75;;
11203;SDS011;5659;49.408;11.116;2023-06-14T03:36:29;6.30;;;5.15;;
11203;SDS011;5659;49.408;11.116;2023-06-14T03:38:55;8.75;;;5.03;;
11203;SDS011;5659;49.408;11.116;2023-06-14T03:41:21;7.68;;;5.03;;
11203;SDS011;5659;49.408;11.116;2023-06-14T03:43:47;7.07;;;4.80;;
11203;SDS011;5659;49.408;11.116;2023-06-14T03:46:13;11.35;;;5.22;;
11203;SDS011;5659;49.408;11.116;2023-06-14T03:48:39;7.65;;;4.70;;
11203;SDS011;5659;49.408;11.116;2023-06-14T03:51:07;8.05;;;4.65;;
11203;SDS011;5659;49.408;11.116;2023-06-14T03:53:33;7.55;;;4.32;;
11203;SDS011;5659;49.408;11.116;2023-06-14T03:56:00;8.43;;;4.30;;
11203;SDS011;5659;49.408;11.116;2023-06-14T03:58:26;7.82;;;4.80;;
11203;SDS011;5659;49.408;11.116;2023-06-14T04:00:53;6.97;;;4.25;;
11203;SDS011;5659;49.408;11.116;2023-06-14T04:03:19;6.40;;;4.60;;
11203;SDS011;5659;49.408;11.116;2023-06-14T04:05:49;6.68;;;4.75;;
11203;SDS011;5659;49.408;11.116;2023-06-14T04:08:15;4.80;;;4.35;;
11203;SDS011;5659;49.408;11.116;2023-06-14T04:10:44;7.65;;;4.70;;
11203;SDS011;5659;49.408;11.116;2023-06-14T04:13:10;6.18;;;5.10;;
11203;SDS011;5659;49.408;11.116;2023-06-14T04:15:38;9.63;;;5.25;;
11203;SDS011;5659;49.408;11.116;2023-06-14T04:18:07;5.25;;;4.45;;
11203;SDS011;5659;49.408;11.116;2023-06-14T04:20:33;7.80;;;5.03;;
11203;SDS011;5659;49.408;11.116;2023-06-14T04:23:10;5.78;;;4.47;;
11203;SDS011;5659;49.408;11.116;2023-06-14T04:25:37;6.30;;;4.40;;
11203;SDS011;5659;49.408;11.116;2023-06-14T04:28:03;7.53;;;4.65;;
11203;SDS011;5659;49.408;11.116;2023-06-14T04:30:29;5.68;;;4.38;;
11203;SDS011;5659;49.408;11.116;2023-06-14T04:32:56;4.80;;;4.30;;
11203;SDS011;5659;49.408;11.116;2023-06-14T04:35:22;9.23;;;4.65;;
11203;SDS011;5659;49.408;11.116;2023-06-14T04:37:52;7.88;;;4.25;;
11203;SDS011;5659;49.408;11.116;2023-06-14T04:40:18;8.23;;;4.28;;
11203;SDS011;5659;49.408;11.116;2023-06-14T04:42:44;9.80;;;4.45;;
11203;SDS011;5659;49.408;11.116;2023-06-14T04:45:11;6.15;;;4.80;;
11203;SDS011;5659;49.408;11.116;2023-06-14T04:47:38;4.70;;;4.22;;
11203;SDS011;5659;49.408;11.116;2023-06-14T04:50:05;6.97;;;4.30;;
11203;SDS011;5659;49.408;11.116;2023-06-14T04:52:31;6.43;;;4.65;;
11203;SDS011;5659;49.408;11.116;2023-06-14T04:54:57;5.10;;;4.60;;
11203;SDS011;5659;49.408;11.116;2023-06-14T04:57:24;4.95;;;4.45;;
11203;SDS011;5659;49.408;11.116;2023-06-14T04:59:50;6.75;;;4.47;;
11203;SDS011;5659;49.408;11.116;2023-06-14T05:02:20;8.73;;;4.65;;
11203;SDS011;5659;49.408;11.116;2023-06-14T05:04:46;9.23;;;4.22;;
11203;SDS011;5659;49.408;11.116;2023-06-14T05:07:12;7.38;;;4.75;;
11203;SDS011;5659;49.408;11.116;2023-06-14T05:09:39;5.90;;;4.50;;
11203;SDS011;5659;49.408;11.116;2023-06-14T05:12:05;6.55;;;4.88;;
11203;SDS011;5659;49.408;11.116;2023-06-14T05:14:34;4.80;;;4.30;;
11203;SDS011;5659;49.408;11.116;2023-06-14T05:17:01;5.30;;;4.55;;
11203;SDS011;5659;49.408;11.116;2023-06-14T05:19:27;5.13;;;4.22;;
11203;SDS011;5659;49.408;11.116;2023-06-14T05:21:53;9.20;;;4.10;;
11203;SDS011;5659;49.408;11.116;2023-06-14T05:24:19;11.75;;;4.72;;
11203;SDS011;5659;49.408;11.116;2023-06-14T05:26:46;6.75;;;4.45;;
11203;SDS011;5659;49.408;11.116;2023-06-14T05:29:13;6.30;;;4.20;;
11203;SDS011;5659;49.408;11.116;2023-06-14T05:31:39;5.10;;;3.97;;
11203;SDS011;5659;49.408;11.116;2023-06-14T05:34:05;6.00;;;4.47;;
11203;SDS011;5659;49.408;11.116;2023-06-14T05:36:31;5.57;;;4.30;;
11203;SDS011;5659;49.408;11.116;2023-06-14T05:38:57;4.45;;;4.05;;
11203;SDS011;5659;49.408;11.116;2023-06-14T05:41:28;8.27;;;4.30;;
11203;SDS011;5659;49.408;11.116;2023-06-14T05:43:54;6.93;;;4.50;;
11203;SDS011;5659;49.408;11.116;2023-06-14T05:46:21;11.27;;;4.88;;
11203;SDS011;5659;49.408;11.116;2023-06-14T05:48:49;5.65;;;4.15;;
11203;SDS011;5659;49.408;11.116;2023-06-14T05:51:15;6.53;;;4.53;;
11203;SDS011;5659;49.408;11.116;2023-06-14T05:53:43;9.40;;;4.35;;
11203;SDS011;5659;49.408;11.116;2023-06-14T05:56:10;4.95;;;4.45;;
11203;SDS011;5659;49.408;11.116;2023-06-14T05:58:36;10.05;;;4.63;;
11203;SDS011;5659;49.408;11.116;2023-06-14T06:01:01;9.73;;;4.82;;
11203;SDS011;5659;49.408;11.116;2023-06-14T06:03:28;10.30;;;4.70;;
11203;SDS011;5659;49.408;11.116;2023-06-14T06:05:54;11.63;;;4.57;;
11203;SDS011;5659;49.408;11.116;2023-06-14T06:08:20;6.32;;;4.28;;
11203;SDS011;5659;49.408;11.116;2023-06-14T06:10:46;6.80;;;4.03;;
11203;SDS011;5659;49.408;11.116;2023-06-14T06:13:12;9.00;;;4.15;;
11203;SDS011;5659;49.408;11.116;2023-06-14T06:15:38;5.53;;;3.90;;
11203;SDS011;5659;49.408;11.116;2023-06-14T06:18:04;8.02;;;4.57;;
11203;SDS011;5659;49.408;11.116;2023-06-14T06:20:31;16.05;;;4.25;;
11203;SDS011;5659;49.408;11.116;2023-06-14T06:23:00;11.25;;;4.32;;
11203;SDS011;5659;49.408;11.116;2023-06-14T06:25:26;7.35;;;3.90;;
11203;SDS011;5659;49.408;11.116;2023-06-14T06:27:53;10.20;;;4.43;;
11203;SDS011;5659;49.408;11.116;2023-06-14T06:30:19;5.10;;;3.83;;
11203;SDS011;5659;49.408;11.116;2023-06-14T06:32:46;11.30;;;4.40;;
11203;SDS011;5659;49.408;11.116;2023-06-14T06:35:13;7.32;;;4.30;;
11203;SDS011;5659;49.408;11.116;2023-06-14T06:37:40;12.45;;;4.18;;
11203;SDS011;5659;49.408;11.116;2023-06-14T06:40:07;5.15;;;3.92;;
11203;SDS011;5659;49.408;11.116;2023-06-14T06:42:33;7.32;;;4.60;;
11203;SDS011;5659;49.408;11.116;2023-06-14T06:44:59;7.00;;;3.75;;
11203;SDS011;5659;49.408;11.116;2023-06-14T06:47:25;5.53;;;4.22;;
11203;SDS011;5659;49.408;11.116;2023-06-14T06:49:52;6.45;;;3.90;;
11203;SDS011;5659;49.408;11.116;2023-06-14T06:52:18;4.90;;;4.10;;
11203;SDS011;5659;49.408;11.116;2023-06-14T06:54:44;6.22;;;3.53;;
11203;SDS011;5659;49.408;11.116;2023-06-14T06:57:10;8.18;;;4.28;;
11203;SDS011;5659;49.408;11.116;2023-06-14T06:59:36;11.32;;;3.83;;
11203;SDS011;5659;49.408;11.116;2023-06-14T07:02:02;4.68;;;3.88;;
11203;SDS011;5659;49.408;11.116;2023-06-14T07:04:28;6.80;;;3.75;;
11203;SDS011;5659;49.408;11.116;2023-06-14T07:06:54;5.65;;;3.75;;
11203;SDS011;5659;49.408;11.116;2023-06-14T07:09:20;7.95;;;3.75;;
11203;SDS011;5659;49.408;11.116;2023-06-14T07:11:47;5.55;;;3.45;;
11203;SDS011;5659;49.408;11.116;2023-06-14T07:14:14;9.10;;;3.60;;
11203;SDS011;5659;49.408;11.116;2023-06-14T07:16:40;8.52;;;3.50;;
11203;SDS011;5659;49.408;11.116;2023-06-14T07:19:06;7.53;;;3.85;;
11203;SDS011;5659;49.408;11.116;2023-06-14T07:21:32;6.35;;;3.60;;
11203;SDS011;5659;49.408;11.116;2023-06-14T07:23:58;5.00;;;3.00;;
11203;SDS011;5659;49.408;11.116;2023-06-14T07:26:24;7.20;;;3.63;;
11203;SDS011;5659;49.408;11.116;2023-06-14T07:28:50;6.13;;;3.22;;
11203;SDS011;5659;49.408;11.116;2023-06-14T07:31:16;6.85;;;3.55;;
11203;SDS011;5659;49.408;11.116;2023-06-14T07:33:44;6.93;;;3.35;;
11203;SDS011;5659;49.408;11.116;2023-06-14T07:36:10;10.93;;;3.45;;
11203;SDS011;5659;49.408;11.116;2023-06-14T07:38:36;8.80;;;3.67;;
11203;SDS011;5659;49.408;11.116;2023-06-14T07:41:02;5.70;;;3.50;;
11203;SDS011;5659;49.408;11.116;2023-06-14T07:43:28;6.13;;;3.28;;
11203;SDS011;5659;49.408;11.116;2023-06-14T07:45:54;7.60;;;3.42;;
11203;SDS011;5659;49.408;11.116;2023-06-14T07:48:20;6.43;;;3.00;;
11203;SDS011;5659;49.408;11.116;2023-06-14T07:50:46;4.20;;;3.05;;
11203;SDS011;5659;49.408;11.116;2023-06-14T07:53:12;4.80;;;3.08;;
11203;SDS011;5659;49.408;11.116;2023-06-14T07:55:38;9.57;;;3.13;;
11203;SDS011;5659;49.408;11.116;2023-06-14T07:58:05;9.43;;;3.33;;
11203;SDS011;5659;49.408;11.116;2023-06-14T08:00:31;8.90;;;3.30;;
11203;SDS011;5659;49.408;11.116;2023-06-14T08:02:57;4.40;;;3.22;;
11203;SDS011;5659;49.408;11.116;2023-06-14T08:05:24;6.03;;;3.50;;
11203;SDS011;5659;49.408;11.116;2023-06-14T08:07:53;5.68;;;3.20;;
11203;SDS011;5659;49.408;11.116;2023-06-14T08:10:20;8.10;;;3.15;;
11203;SDS011;5659;49.408;11.116;2023-06-14T08:12:46;9.85;;;3.08;;
11203;SDS011;5659;49.408;11.116;2023-06-14T08:15:13;8.95;;;3.05;;
11203;SDS011;5659;49.408;11.116;2023-06-14T08:17:39;8.25;;;3.30;;
11203;SDS011;5659;49.408;11.116;2023-06-14T08:20:05;3.25;;;2.72;;
11203;SDS011;5659;49.408;11.116;2023-06-14T08:22:32;10.00;;;3.53;;
11203;SDS011;5659;49.408;11.116;2023-06-14T08:24:59;8.13;;;3.30;;
11203;SDS011;5659;49.408;11.116;2023-06-14T08:27:26;8.65;;;3.20;;
11203;SDS011;5659;49.408;11.116;2023-06-14T08:29:52;6.43;;;3.00;;
11203;SDS011;5659;49.408;11.116;2023-06-14T08:32:18;9.13;;;2.97;;
11203;SDS011;5659;49.408;11.116;2023-06-14T08:34:43;3.75;;;3.00;;
11203;SDS011;5659;49.408;11.116;2023-06-14T08:37:09;3.88;;;3.42;;
11203;SDS011;5659;49.408;11.116;2023-06-14T08:39:35;7.70;;;2.90;;
11203;SDS011;5659;49.408;11.116;2023-06-14T08:42:02;7.65;;;2.80;;
11203;SDS011;5659;49.408;11.116;2023-06-14T08:44:29;9.63;;;2.97;;
11203;SDS011;5659;49.408;11.116;2023-06-14T08:46:58;8.63;;;3.08;;
11203;SDS011;5659;49.408;11.116;2023-06-14T08:49:25;8.48;;;3.08;;
11203;SDS011;5659;49.408;11.116;2023-06-14T08:51:57;6.82;;;2.90;;
11203;SDS011;5659;49.408;11.116;2023-06-14T08:54:27;8.80;;;3.00;;
11203;SDS011;5659;49.408;11.116;2023-06-14T08:56:55;5.43;;;3.05;;
11203;SDS011;5659;49.408;11.116;2023-06-14T08:59:27;7.53;;;2.97;;
11203;SDS011;5659;49.408;11.116;2023-06-14T09:01:54;6.25;;;3.08;;
11203;SDS011;5659;49.408;11.116;2023-06-14T09:04:20;5.93;;;3.05;;
11203;SDS011;5659;49.408;11.116;2023-06-14T09:06:47;5.95;;;3.20;;
11203;SDS011;5659;49.408;11.116;2023-06-14T09:09:18;9.45;;;2.75;;
11203;SDS011;5659;49.408;11.116;2023-06-14T09:11:44;9.15;;;3.00;;
11203;SDS011;5659;49.408;11.116;2023-06-14T09:14:10;5.88;;;3.20;;
11203;SDS011;5659;49.408;11.116;2023-06-14T09:16:36;6.15;;;2.92;;
11203;SDS011;5659;49.408;11.116;2023-06-14T09:19:02;6.88;;;3.05;;
11203;SDS011;5659;49.408;11.116;2023-06-14T09:21:28;6.95;;;3.55;;
11203;SDS011;5659;49.408;11.116;2023-06-14T09:23:59;5.90;;;2.90;;
11203;SDS011;5659;49.408;11.116;2023-06-14T09:26:25;8.63;;;3.10;;
11203;SDS011;5659;49.408;11.116;2023-06-14T09:28:52;7.88;;;3.10;;
11203;SDS011;5659;49.408;11.116;2023-06-14T09:31:20;10.65;;;3.15;;
11203;SDS011;5659;49.408;11.116;2023-06-14T09:33:50;7.60;;;2.92;;
11203;SDS011;5659;49.408;11.116;2023-06-14T09:36:17;4.70;;;3.17;;
11203;SDS011;5659;49.408;11.116;2023-06-14T09:38:56;6.90;;;2.90;;
11203;SDS011;5659;49.408;11.116;2023-06-14T09:41:40;6.10;;;3.00;;
11203;SDS011;5659;49.408;11.116;2023-06-14T09:44:08;5.60;;;3.00;;
11203;SDS011;5659;49.408;11.116;2023-06-14T09:46:35;4.28;;;3.28;;
11203;SDS011;5659;49.408;11.116;2023-06-14T09:49:02;6.95;;;3.17;;
11203;SDS011;5659;49.408;11.116;2023-06-14T09:51:28;6.45;;;2.90;;
11203;SDS011;5659;49.408;11.116;2023-06-14T09:53:56;11.73;;;2.83;;
11203;SDS011;5659;49.408;11.116;2023-06-14T09:56:27;6.50;;;3.28;;
11203;SDS011;5659;49.408;11.116;2023-06-14T09:58:55;4.07;;;3.42;;
11203;SDS011;5659;49.408;11.116;2023-06-14T10:01:21;5.88;;;3.05;;
11203;SDS011;5659;49.408;11.116;2023-06-14T10:03:49;4.38;;;3.05;;
11203;SDS011;5659;49.408;11.116;2023-06-14T10:06:16;5.50;;;3.10;;
11203;SDS011;5659;49.408;11.116;2023-06-14T10:08:42;5.47;;;3.10;;
11203;SDS011;5659;49.408;11.116;2023-06-14T10:11:09;9.07;;;2.95;;
11203;SDS011;5659;49.408;11.116;2023-06-14T10:13:37;7.25;;;3.03;;
11203;SDS011;5659;49.408;11.116;2023-06-14T10:16:14;5.57;;;3.03;;
11203;SDS011;5659;49.408;11.116;2023-06-14T10:21:55;9.18;;;3.70;;
11203;SDS011;5659;49.408;11.116;2023-06-14T10:24:01;5.07;;;3.03;;
11203;SDS011;5659;49.408;11.116;2023-06-14T10:26:29;4.45;;;3.03;;
11203;SDS011;5659;49.408;11.116;2023-06-14T10:28:59;6.30;;;3.05;;
11203;SDS011;5659;49.408;11.116;2023-06-14T10:31:42;4.85;;;2.78;;
11203;SDS011;5659;49.408;11.116;2023-06-14T10:34:08;5.90;;;3.15;;
11203;SDS011;5659;49.408;11.116;2023-06-14T10:36:35;3.92;;;2.88;;
11203;SDS011;5659;49.408;11.116;2023-06-14T10:41:27;6.30;;;3.00;;
11203;SDS011;5659;49.408;11.116;2023-06-14T10:46:38;5.93;;;3.17;;
11203;SDS011;5659;49.408;11.116;2023-06-14T10:49:05;5.68;;;2.90;;
11203;SDS011;5659;49.408;11.116;2023-06-14T10:51:41;4.70;;;3.33;;
11203;SDS011;5659;49.408;11.116;2023-06-14T10:54:14;5.50;;;3.10;;
11203;SDS011;5659;49.408;11.116;2023-06-14T10:56:58;8.32;;;3.30;;
11203;SDS011;5659;49.408;11.116;2023-06-14T10:59:24;5.88;;;3.22;;
11203;SDS011;5659;49.408;11.116;2023-06-14T11:01:57;6.25;;;3.33;;
11203;SDS011;5659;49.408;11.116;2023-06-14T11:04:28;7.72;;;3.08;;
11203;SDS011;5659;49.408;11.116;2023-06-14T11:12:40;4.57;;;2.83;;
11203;SDS011;5659;49.408;11.116;2023-06-14T11:15:07;11.25;;;2.88;;
11203;SDS011;5659;49.408;11.116;2023-06-14T11:17:33;7.25;;;2.80;;
11203;SDS011;5659;49.408;11.116;2023-06-14T11:20:09;11.32;;;2.80;;
11203;SDS011;5659;49.408;11.116;2023-06-14T11:22:39;11.38;;;2.97;;
11203;SDS011;5659;49.408;11.116;2023-06-14T11:25:08;7.22;;;3.00;;
11203;SDS011;5659;49.408;11.116;2023-06-14T11:27:34;4.15;;;2.80;;
11203;SDS011;5659;49.408;11.116;2023-06-14T11:30:00;4.43;;;2.60;;
11203;SDS011;5659;49.408;11.116;2023-06-14T11:32:26;7.28;;;2.95;;
11203;SDS011;5659;49.408;11.116;2023-06-14T11:34:52;5.85;;;3.20;;
11203;SDS011;5659;49.408;11.116;2023-06-14T11:37:18;5.22;;;2.80;;
11203;SDS011;5659;49.408;11.116;2023-06-14T11:39:44;5.85;;;3.15;;
11203;SDS011;5659;49.408;11.116;2023-06-14T11:42:17;3.40;;;2.80;;
11203;SDS011;5659;49.408;11.116;2023-06-14T11:44:46;4.50;;;2.90;;
11203;SDS011;5659;49.408;11.116;2023-06-14T11:47:21;3.13;;;2.83;;
11203;SDS011;5659;49.408;11.116;2023-06-14T11:49:48;6.20;;;2.70;;
11203;SDS011;5659;49.408;11.116;2023-06-14T11:52:14;3.10;;;2.80;;
11203;SDS011;5659;49.408;11.116;2023-06-14T11:54:40;5.13;;;2.53;;
11203;SDS011;5659;49.408;11.116;2023-06-14T11:57:07;6.78;;;3.03;;
11203;SDS011;5659;49.408;11.116;2023-06-14T11:59:39;7.35;;;3.15;;
11203;SDS011;5659;49.408;11.116;2023-06-14T12:02:06;6.43;;;3.20;;
11203;SDS011;5659;49.408;11.116;2023-06-14T12:04:32;6.28;;;2.72;;
11203;SDS011;5659;49.408;11.116;2023-06-14T12:07:11;6.80;;;3.00;;
11203;SDS011;5659;49.408;11.116;2023-06-14T12:12:25;6.57;;;2.80;;
11203;SDS011;5659;49.408;11.116;2023-06-14T12:14:51;3.70;;;2.47;;
11203;SDS011;5659;49.408;11.116;2023-06-14T12:17:18;3.65;;;2.63;;
11203;SDS011;5659;49.408;11.116;2023-06-14T12:19:45;11.40;;;3.10;;
11203;SDS011;5659;49.408;11.116;2023-06-14T12:22:12;4.70;;;2.90;;
11203;SDS011;5659;49.408;11.116;2023-06-14T12:24:45;6.05;;;2.92;;
11203;SDS011;5659;49.408;11.116;2023-06-14T12:27:11;4.55;;;2.72;;
11203;SDS011;5659;49.408;11.116;2023-06-14T12:29:43;6.65;;;2.88;;
11203;SDS011;5659;49.408;11.116;2023-06-14T12:32:10;7.85;;;3.10;;
11203;SDS011;5659;49.408;11.116;2023-06-14T12:34:36;7.63;;;2.70;;
11203;SDS011;5659;49.408;11.116;2023-06-14T12:37:02;9.40;;;3.03;;
11203;SDS011;5659;49.408;11.116;2023-06-14T12:39:29;7.20;;;2.95;;
11203;SDS011;5659;49.408;11.116;2023-06-14T12:41:56;3.47;;;2.83;;
11203;SDS011;5659;49.408;11.116;2023-06-14T12:44:22;6.30;;;3.08;;
11203;SDS011;5659;49.408;11.116;2023-06-14T12:46:48;6.75;;;2.70;;
11203;SDS011;5659;49.408;11.116;2023-06-14T12:49:16;15.15;;;2.90;;
11203;SDS011;5659;49.408;11.116;2023-06-14T12:51:42;7.80;;;2.92;;
11203;SDS011;5659;49.408;11.116;2023-06-14T12:54:09;5.75;;;2.90;;
11203;SDS011;5659;49.408;11.116;2023-06-14T12:56:35;4.32;;;2.70;;
11203;SDS011;5659;49.408;11.116;2023-06-14T12:59:01;3.65;;;2.58;;
11203;SDS011;5659;49.408;11.116;2023-06-14T13:01:27;4.85;;;2.60;;
11203;SDS011;5659;49.408;11.116;2023-06-14T13:03:53;3.28;;;2.50;;
11203;SDS011;5659;49.408;11.116;2023-06-14T13:06:22;3.28;;;2.58;;
11203;SDS011;5659;49.408;11.116;2023-06-14T13:08:49;3.25;;;2.78;;
11203;SDS011;5659;49.408;11.116;2023-06-14T13:11:15;6.63;;;2.70;;
11203;SDS011;5659;49.408;11.116;2023-06-14T13:13:41;6.03;;;2.67;;
11203;SDS011;5659;49.408;11.116;2023-06-14T13:16:07;3.70;;;2.80;;
11203;SDS011;5659;49.408;11.116;2023-06-14T13:18:33;6.68;;;2.70;;
11203;SDS011;5659;49.408;11.116;2023-06-14T13:20:59;2.50;;;2.25;;
11203;SDS011;5659;49.408;11.116;2023-06-14T13:23:26;4.53;;;2.45;;
11203;SDS011;5659;49.408;11.116;2023-06-14T13:25:52;5.10;;;2.60;;
11203;SDS011;5659;49.408;11.116;2023-06-14T13:28:18;4.00;;;2.40;;
11203;SDS011;5659;49.408;11.116;2023-06-14T13:30:46;5.32;;;2.83;;
11203;SDS011;5659;49.408;11.116;2023-06-14T13:33:12;6.15;;;2.47;;
11203;SDS011;5659;49.408;11.116;2023-06-14T13:35:38;4.25;;;2.38;;
11203;SDS011;5659;49.408;11.116;2023-06-14T13:38:04;7.65;;;2.88;;
11203;SDS011;5659;49.408;11.116;2023-06-14T13:40:30;4.63;;;2.78;;
11203;SDS011;5659;49.408;11.116;2023-06-14T13:42:56;3.40;;;2.60;;
11203;SDS011;5659;49.408;11.116;2023-06-14T13:45:22;3.08;;;2.78;;
11203;SDS011;5659;49.408;11.116;2023-06-14T13:47:48;3.63;;;2.40;;
11203;SDS011;5659;49.408;11.116;2023-06-14T13:50:14;6.80;;;2.63;;
11203;SDS011;5659;49.408;11.116;2023-06-14T13:52:41;8.52;;;2.63;;
11203;SDS011;5659;49.408;11.116;2023-06-14T13:55:07;4.05;;;2.65;;
11203;SDS011;5659;49.408;11.116;2023-06-14T13:57:34;5.07;;;2.65;;
11203;SDS011;5659;49.408;11.116;2023-06-14T14:00:00;8.32;;;2.50;;
11203;SDS011;5659;49.408;11.116;2023-06-14T14:02:27;4.93;;;2.35;;
11203;SDS011;5659;49.408;11.116;2023-06-14T14:04:54;11.23;;;2.67;;
11203;SDS011;5659;49.408;11.116;2023-06-14T14:07:20;5.45;;;2.60;;
11203;SDS011;5659;49.408;11.116;2023-06-14T14:09:47;5.88;;;2.75;;
11203;SDS011;5659;49.408;11.116;2023-06-14T14:12:13;4.90;;;2.92;;
11203;SDS011;5659;49.408;11.116;2023-06-14T14:14:39;3.85;;;2.63;;
11203;SDS011;5659;49.408;11.116;2023-06-14T14:17:05;7.03;;;2.95;;
11203;SDS011;5659;49.408;11.116;2023-06-14T14:19:32;5.78;;;3.00;;
11203;SDS011;5659;49.408;11.116;2023-06-14T14:21:58;4.43;;;2.85;;
11203;SDS011;5659;49.408;11.116;2023-06-14T14:24:24;5.78;;;3.00;;
11203;SDS011;5659;49.408;11.116;2023-06-14T14:26:51;9.93;;;2.80;;
11203;SDS011;5659;49.408;11.116;2023-06-14T14:29:18;4.00;;;2.70;;
11203;SDS011;5659;49.408;11.116;2023-06-14T14:31:45;9.70;;;3.00;;
11203;SDS011;5659;49.408;11.116;2023-06-14T14:34:11;10.93;;;3.20;;
11203;SDS011;5659;49.408;11.116;2023-06-14T14:36:37;6.10;;;2.58;;
11203;SDS011;5659;49.408;11.116;2023-06-14T14:39:07;4.35;;;2.90;;
11203;SDS011;5659;49.408;11.116;2023-06-14T14:41:33;4.78;;;2.60;;
11203;SDS011;5659;49.408;11.116;2023-06-14T14:43:59;6.50;;;2.95;;
11203;SDS011;5659;49.408;11.116;2023-06-14T14:46:25;8.38;;;2.30;;
11203;SDS011;5659;49.408;11.116;2023-06-14T14:48:51;3.47;;;2.60;;
11203;SDS011;5659;49.408;11.116;2023-06-14T14:51:17;4.72;;;2.72;;
11203;SDS011;5659;49.408;11.116;2023-06-14T14:53:43;9.95;;;2.80;;
11203;SDS011;5659;49.408;11.116;2023-06-14T14:56:10;3.58;;;2.50;;
11203;SDS011;5659;49.408;11.116;2023-06-14T14:58:37;7.18;;;2.45;;
11203;SDS011;5659;49.408;11.116;2023-06-14T15:01:03;4.75;;;2.38;;
11203;SDS011;5659;49.408;11.116;2023-06-14T15:03:30;5.25;;;2.85;;
11203;SDS011;5659;49.408;11.116;2023-06-14T15:05:57;6.55;;;2.50;;